Nearby METAR Reports

 

KNTU - NAS Oceana, Virginia Beach, Virginia, USA
Distance from station: N 3.2mi, 5.1km
Updated: Tue, 03-Aug-2021 10:03pm EDT
Light rain, Mostly cloudy
Light rain, Mostly cloudy
 Wind from ENE
Wind: ENE 6 mph , 9 km/h
Temperature: 73°F , 23°C
Dew Point: 66°F , 19°C
Humidity: 78%
Barometer: 30.06 inHg , 1017.9 hPa
Summary: Light rain
Clouds: Mostly cloudy
Visibility: 10 miles , 16 km
Cloud details: Partly cloudy 1500 ft
Mostly cloudy 2200 ft
Mostly cloudy 4500 ft
2021/08/04 02:03 KNTU 040203Z 07005KT 10SM -RA SCT015 BKN022 BKN045 23/19 A3006 RMK AO2 RAB0157 P0000 T02280194
KNFE - Fentress NALF, Virginia Beach Virginia, USA
Distance from station: SW 7.6mi, 12.2km
Updated: Tue, 03-Aug-2021 9:56pm EDT
Light rain, Partly cloudy
Light rain, Partly cloudy
 Wind from N
Wind: N 6 mph , 9 km/h
Temperature: 70°F , 21°C
Dew Point: 66°F , 19°C
Humidity: 88%
Barometer: 30.06 inHg , 1017.9 hPa
Summary: Light rain
Clouds: Partly cloudy
Visibility: 8 miles , 13 km
Cloud details: Few Clouds 1600 ft
Few Clouds 2800 ft
Partly cloudy 12000 ft
2021/08/04 01:56 KNFE 040156Z AUTO 01005KT 8SM -RA FEW016 FEW028 SCT120 21/19 A3006 RMK AO2 SLP181 P0001 T02060189
 
KORF - Norfolk International, Norfolk, Virginia, USA
Distance from station: NW 12.2mi, 19.6km
Updated: Tue, 03-Aug-2021 9:51pm EDT
Clear
Clear
 Wind from E
Wind: E 6 mph , 9 km/h
Temperature: 70°F , 21°C
Dew Point: 66°F , 19°C
Humidity: 88%
Barometer: 30.06 inHg , 1017.9 hPa
Clouds: Clear
Visibility: 10 miles , 16 km
2021/08/04 01:51 KORF 040151Z 08005KT 10SM CLR 21/19 A3006 RMK AO2 RAE11 SLP179 P0000 T02060194
KCPK - Cheasapeak Municipal, Cheasapeak, Virginia, USA
Distance from station: SW 17.2mi, 27.7km
Updated: Tue, 03-Aug-2021 10:15pm EDT
Light rain, Mostly cloudy
Light rain, Mostly cloudy
 Wind from NNE
Wind: NNE 3 mph , 6 km/h
Temperature: 68°F , 20°C
Dew Point: 66°F , 19°C
Humidity: 94%
Barometer: 30.07 inHg , 1018.3 hPa
Summary: Light rain
Clouds: Mostly cloudy
Visibility: 10 miles , 16 km
Cloud details: Partly cloudy 1500 ft
Partly cloudy 2300 ft
Mostly cloudy 12000 ft
2021/08/04 02:15 KCPK 040215Z AUTO 03003KT 10SM -RA SCT015 SCT023 BKN120 20/19 A3007 RMK AO2 T01950187
 
KNGU - NAS Norfolk, Norfolk, Virginia, USA
Distance from station: NW 17.7mi, 28.5km
Updated: Tue, 03-Aug-2021 9:59pm EDT
Light rain, Overcast
Light rain, Overcast
 Wind from ESE
Wind: ESE 5 mph , 7 km/h
Temperature: 72°F , 22°C
Dew Point: 66°F , 19°C
Humidity: 83%
Barometer: 30.07 inHg , 1018.3 hPa
Summary: Light rain
Clouds: Overcast
Visibility: 8 miles , 13 km
Cloud details: Few Clouds 2000 ft
Partly cloudy 11000 ft
Overcast 14000 ft
2021/08/04 01:59 KNGU 040159Z 11004KT 8SM -RA FEW020 SCT110 OVC140 22/19 A3007 RMK AO2 SLP183 P0000 T02170189 $